sensor_id;sensor_type;location;lat;lon;timestamp;pressure;altitude;pressure_sealevel;temperature;humidity
65553;BME280;52465;51.560;14.368;2023-06-22T00:01:28;100524.53;;;25.58;56.11
65553;BME280;52465;51.560;14.368;2023-06-22T00:03:54;100558.63;;;25.80;56.11
65553;BME280;52465;51.560;14.368;2023-06-22T00:06:20;100561.63;;;25.83;56.39
65553;BME280;52465;51.560;14.368;2023-06-22T00:08:47;100554.31;;;25.79;56.37
65553;BME280;52465;51.560;14.368;2023-06-22T00:11:12;100569.13;;;25.81;56.28
65553;BME280;52465;51.560;14.368;2023-06-22T00:13:39;100569.34;;;25.80;56.32
65553;BME280;52465;51.560;14.368;2023-06-22T00:16:05;100566.66;;;25.80;56.33
65553;BME280;52465;51.560;14.368;2023-06-22T00:18:30;100526.13;;;25.54;56.55
65553;BME280;52465;51.560;14.368;2023-06-22T00:20:58;100570.41;;;25.79;56.37
65553;BME280;52465;51.560;14.368;2023-06-22T00:23:25;100483.34;;;25.21;56.50
65553;BME280;52465;51.560;14.368;2023-06-22T00:25:51;100574.44;;;25.76;56.41
65553;BME280;52465;51.560;14.368;2023-06-22T00:28:18;100576.75;;;25.73;56.43
65553;BME280;52465;51.560;14.368;2023-06-22T00:30:44;100578.88;;;25.71;56.79
65553;BME280;52465;51.560;14.368;2023-06-22T00:33:11;100534.44;;;25.36;56.11
65553;BME280;52465;51.560;14.368;2023-06-22T00:35:37;100588.53;;;25.72;56.69
65553;BME280;52465;51.560;14.368;2023-06-22T00:38:03;100577.59;;;25.56;56.68
65553;BME280;52465;51.560;14.368;2023-06-22T00:40:31;100589.22;;;25.62;56.52
65553;BME280;52465;51.560;14.368;2023-06-22T00:42:58;100606.50;;;25.71;56.44
65553;BME280;52465;51.560;14.368;2023-06-22T00:45:24;100567.34;;;25.48;56.51
65553;BME280;52465;51.560;14.368;2023-06-22T00:47:59;100592.78;;;25.68;56.74
65553;BME280;52465;51.560;14.368;2023-06-22T00:50:37;100577.00;;;25.49;56.65
65553;BME280;52465;51.560;14.368;2023-06-22T00:53:05;100615.03;;;25.68;56.80
65553;BME280;52465;51.560;14.368;2023-06-22T00:56:27;100603.44;;;25.63;56.94
65553;BME280;52465;51.560;14.368;2023-06-22T00:58:55;100605.06;;;25.64;56.55
65553;BME280;52465;51.560;14.368;2023-06-22T01:01:23;100596.44;;;25.62;56.65
65553;BME280;52465;51.560;14.368;2023-06-22T01:03:50;100576.09;;;25.44;56.68
65553;BME280;52465;51.560;14.368;2023-06-22T01:06:22;100609.84;;;25.62;56.81
65553;BME280;52465;51.560;14.368;2023-06-22T01:10:14;100560.34;;;25.30;56.84
65553;BME280;52465;51.560;14.368;2023-06-22T01:13:40;100608.72;;;25.57;56.56
65553;BME280;52465;51.560;14.368;2023-06-22T01:16:24;100572.47;;;25.33;56.75
65553;BME280;52465;51.560;14.368;2023-06-22T01:18:55;100602.00;;;25.55;56.71
65553;BME280;52465;51.560;14.368;2023-06-22T01:21:24;100596.31;;;25.51;56.73
65553;BME280;52465;51.560;14.368;2023-06-22T01:24:06;100604.69;;;25.55;56.80
65553;BME280;52465;51.560;14.368;2023-06-22T01:26:54;100609.78;;;25.56;56.65
65553;BME280;52465;51.560;14.368;2023-06-22T01:29:59;100587.31;;;25.41;56.94
65553;BME280;52465;51.560;14.368;2023-06-22T01:32:30;100604.59;;;25.50;56.87
65553;BME280;52465;51.560;14.368;2023-06-22T01:34:58;100600.84;;;25.51;56.63
65553;BME280;52465;51.560;14.368;2023-06-22T01:37:28;100603.53;;;25.51;56.72
65553;BME280;52465;51.560;14.368;2023-06-22T01:39:55;100610.78;;;25.50;56.76
65553;BME280;52465;51.560;14.368;2023-06-22T01:42:24;100600.78;;;25.46;56.61
65553;BME280;52465;51.560;14.368;2023-06-22T01:44:53;100605.34;;;25.45;56.60
65553;BME280;52465;51.560;14.368;2023-06-22T01:47:21;100609.16;;;25.49;56.70
65553;BME280;52465;51.560;14.368;2023-06-22T01:49:47;100613.38;;;25.45;56.90
65553;BME280;52465;51.560;14.368;2023-06-22T01:52:15;100594.53;;;25.40;56.66
65553;BME280;52465;51.560;14.368;2023-06-22T01:54:41;100600.63;;;25.36;56.84
65553;BME280;52465;51.560;14.368;2023-06-22T01:57:07;100608.75;;;25.41;56.66
65553;BME280;52465;51.560;14.368;2023-06-22T01:59:39;100612.75;;;25.38;56.73
65553;BME280;52465;51.560;14.368;2023-06-22T02:02:17;100596.59;;;25.33;56.99
65553;BME280;52465;51.560;14.368;2023-06-22T02:07:23;100563.91;;;25.14;56.88
65553;BME280;52465;51.560;14.368;2023-06-22T02:09:51;100609.56;;;25.41;56.87
65553;BME280;52465;51.560;14.368;2023-06-22T02:12:22;100596.91;;;25.37;57.13
65553;BME280;52465;51.560;14.368;2023-06-22T02:14:51;100593.09;;;25.32;56.84
65553;BME280;52465;51.560;14.368;2023-06-22T02:17:18;100591.97;;;25.28;56.84
65553;BME280;52465;51.560;14.368;2023-06-22T02:19:44;100590.00;;;25.24;56.95
65553;BME280;52465;51.560;14.368;2023-06-22T02:22:09;100619.97;;;25.38;57.02
65553;BME280;52465;51.560;14.368;2023-06-22T02:24:35;100604.97;;;25.37;57.22
65553;BME280;52465;51.560;14.368;2023-06-22T02:27:02;100597.31;;;25.28;57.04
65553;BME280;52465;51.560;14.368;2023-06-22T02:30:56;100592.94;;;25.22;56.79
65553;BME280;52465;51.560;14.368;2023-06-22T02:33:22;100600.81;;;25.29;56.95
65553;BME280;52465;51.560;14.368;2023-06-22T02:35:47;100614.78;;;25.31;56.93
65553;BME280;52465;51.560;14.368;2023-06-22T02:38:15;100605.53;;;25.22;57.08
65553;BME280;52465;51.560;14.368;2023-06-22T02:40:41;100602.59;;;25.23;56.93
65553;BME280;52465;51.560;14.368;2023-06-22T02:43:07;100589.94;;;25.19;57.02
65553;BME280;52465;51.560;14.368;2023-06-22T02:45:32;100601.72;;;25.18;57.09
65553;BME280;52465;51.560;14.368;2023-06-22T02:47:58;100612.25;;;25.24;57.06
65553;BME280;52465;51.560;14.368;2023-06-22T02:50:25;100591.41;;;25.10;57.26
65553;BME280;52465;51.560;14.368;2023-06-22T02:52:52;100620.06;;;25.26;57.10
65553;BME280;52465;51.560;14.368;2023-06-22T02:55:21;100596.19;;;25.08;57.08
65553;BME280;52465;51.560;14.368;2023-06-22T02:57:47;100626.16;;;25.21;57.22
65553;BME280;52465;51.560;14.368;2023-06-22T03:00:15;100608.59;;;25.14;57.06
65553;BME280;52465;51.560;14.368;2023-06-22T03:02:52;100611.78;;;25.11;56.94
65553;BME280;52465;51.560;14.368;2023-06-22T03:05:19;100596.66;;;25.04;57.18
65553;BME280;52465;51.560;14.368;2023-06-22T03:07:45;100627.22;;;25.20;57.25
65553;BME280;52465;51.560;14.368;2023-06-22T03:10:13;100628.03;;;25.21;57.24
65553;BME280;52465;51.560;14.368;2023-06-22T03:12:40;100627.22;;;25.20;57.11
65553;BME280;52465;51.560;14.368;2023-06-22T03:15:08;100630.13;;;25.19;57.01
65553;BME280;52465;51.560;14.368;2023-06-22T03:17:35;100624.94;;;25.12;57.19
65553;BME280;52465;51.560;14.368;2023-06-22T03:20:02;100602.03;;;25.04;57.39
65553;BME280;52465;51.560;14.368;2023-06-22T03:22:35;100617.78;;;25.18;57.16
65553;BME280;52465;51.560;14.368;2023-06-22T03:25:02;100597.84;;;25.09;57.20
65553;BME280;52465;51.560;14.368;2023-06-22T03:27:28;100593.97;;;25.04;57.11
65553;BME280;52465;51.560;14.368;2023-06-22T03:29:57;100602.59;;;25.06;57.43
65553;BME280;52465;51.560;14.368;2023-06-22T03:32:25;100579.63;;;24.94;57.18
65553;BME280;52465;51.560;14.368;2023-06-22T03:34:55;100598.66;;;25.09;57.21
65553;BME280;52465;51.560;14.368;2023-06-22T03:37:25;100609.91;;;25.11;57.33
65553;BME280;52465;51.560;14.368;2023-06-22T03:39:51;100611.53;;;25.12;57.16
65553;BME280;52465;51.560;14.368;2023-06-22T03:42:17;100601.00;;;25.05;57.22
65553;BME280;52465;51.560;14.368;2023-06-22T03:44:43;100610.16;;;25.10;57.27
65553;BME280;52465;51.560;14.368;2023-06-22T03:47:09;100587.00;;;25.03;57.23
65553;BME280;52465;51.560;14.368;2023-06-22T03:49:36;100586.28;;;25.08;57.14
65553;BME280;52465;51.560;14.368;2023-06-22T03:52:02;100592.47;;;25.09;56.88
65553;BME280;52465;51.560;14.368;2023-06-22T03:54:29;100585.13;;;25.04;57.30
65553;BME280;52465;51.560;14.368;2023-06-22T03:59:30;100565.34;;;24.88;56.88
65553;BME280;52465;51.560;14.368;2023-06-22T04:01:58;100591.31;;;25.04;57.39
65553;BME280;52465;51.560;14.368;2023-06-22T04:04:24;100596.66;;;25.04;57.10
65553;BME280;52465;51.560;14.368;2023-06-22T04:06:51;100591.47;;;24.98;57.30
65553;BME280;52465;51.560;14.368;2023-06-22T04:09:17;100578.81;;;24.93;57.18
65553;BME280;52465;51.560;14.368;2023-06-22T04:13:53;100593.97;;;25.04;57.17
65553;BME280;52465;51.560;14.368;2023-06-22T04:16:19;100592.38;;;25.03;57.01
65553;BME280;52465;51.560;14.368;2023-06-22T04:18:45;100587.47;;;25.00;56.88
65553;BME280;52465;51.560;14.368;2023-06-22T04:21:13;100587.41;;;24.95;57.39
65553;BME280;52465;51.560;14.368;2023-06-22T04:23:39;100593.09;;;24.99;57.28
65553;BME280;52465;51.560;14.368;2023-06-22T04:26:05;100598.19;;;25.00;57.43
65553;BME280;52465;51.560;14.368;2023-06-22T04:28:31;100585.22;;;24.92;57.14
65553;BME280;52465;51.560;14.368;2023-06-22T04:31:01;100594.63;;;24.95;57.29
65553;BME280;52465;51.560;14.368;2023-06-22T04:33:28;100602.75;;;25.00;57.35
65553;BME280;52465;51.560;14.368;2023-06-22T04:36:05;100602.66;;;24.95;57.18
65553;BME280;52465;51.560;14.368;2023-06-22T04:38:31;100594.94;;;24.82;57.39
65553;BME280;52465;51.560;14.368;2023-06-22T04:40:59;100622.81;;;24.97;57.37
65553;BME280;52465;51.560;14.368;2023-06-22T04:43:29;100604.44;;;24.89;57.34
65553;BME280;52465;51.560;14.368;2023-06-22T04:46:03;100615.00;;;24.96;57.42
65553;BME280;52465;51.560;14.368;2023-06-22T04:48:30;100617.13;;;24.94;57.39
65553;BME280;52465;51.560;14.368;2023-06-22T04:51:03;100613.88;;;24.92;57.30
65553;BME280;52465;51.560;14.368;2023-06-22T04:53:31;100618.47;;;24.96;57.35
65553;BME280;52465;51.560;14.368;2023-06-22T04:55:57;100613.78;;;24.87;57.25
65553;BME280;52465;51.560;14.368;2023-06-22T05:00:30;100621.31;;;24.90;57.41
65553;BME280;52465;51.560;14.368;2023-06-22T05:02:57;100620.19;;;24.86;57.49
65553;BME280;52465;51.560;14.368;2023-06-22T05:07:11;100601.84;;;24.77;57.11
65553;BME280;52465;51.560;14.368;2023-06-22T05:09:37;100622.94;;;24.91;57.21
65553;BME280;52465;51.560;14.368;2023-06-22T05:12:03;100621.56;;;24.88;57.14
65553;BME280;52465;51.560;14.368;2023-06-22T05:14:31;100622.63;;;24.87;57.37
65553;BME280;52465;51.560;14.368;2023-06-22T05:16:57;100633.09;;;24.89;57.29
65553;BME280;52465;51.560;14.368;2023-06-22T05:20:17;100624.72;;;24.85;57.45
65553;BME280;52465;51.560;14.368;2023-06-22T05:22:43;100641.13;;;24.89;57.57
65553;BME280;52465;51.560;14.368;2023-06-22T05:25:11;100641.47;;;24.92;57.39
65553;BME280;52465;51.560;14.368;2023-06-22T05:27:37;100649.72;;;24.91;57.47
65553;BME280;52465;51.560;14.368;2023-06-22T05:30:08;100659.41;;;24.92;57.27
65553;BME280;52465;51.560;14.368;2023-06-22T05:32:36;100658.72;;;24.85;57.60
65553;BME280;52465;51.560;14.368;2023-06-22T05:35:04;100651.28;;;24.87;57.70
65553;BME280;52465;51.560;14.368;2023-06-22T05:37:31;100640.38;;;24.76;57.47
65553;BME280;52465;51.560;14.368;2023-06-22T05:39:57;100664.91;;;24.85;57.53
65553;BME280;52465;51.560;14.368;2023-06-22T05:42:23;100666.59;;;24.91;57.41
65553;BME280;52465;51.560;14.368;2023-06-22T05:44:52;100672.81;;;24.92;57.40
65553;BME280;52465;51.560;14.368;2023-06-22T05:47:20;100644.94;;;24.76;57.45
65553;BME280;52465;51.560;14.368;2023-06-22T05:49:52;100667.09;;;24.88;57.41
65553;BME280;52465;51.560;14.368;2023-06-22T05:52:18;100681.06;;;24.90;57.42
65553;BME280;52465;51.560;14.368;2023-06-22T05:54:44;100660.59;;;24.84;57.35
65553;BME280;52465;51.560;14.368;2023-06-22T05:57:10;100677.31;;;24.91;57.52
65553;BME280;52465;51.560;14.368;2023-06-22T05:59:36;100677.31;;;24.91;57.49
65553;BME280;52465;51.560;14.368;2023-06-22T06:02:02;100686.19;;;24.92;57.56
65553;BME280;52465;51.560;14.368;2023-06-22T06:04:28;100677.38;;;24.79;57.37
65553;BME280;52465;51.560;14.368;2023-06-22T06:06:54;100696.91;;;24.92;57.62
65553;BME280;52465;51.560;14.368;2023-06-22T06:09:20;100690.72;;;24.91;57.46
65553;BME280;52465;51.560;14.368;2023-06-22T06:11:46;100680.25;;;24.90;57.75
65553;BME280;52465;51.560;14.368;2023-06-22T06:14:12;100689.69;;;24.92;57.49
65553;BME280;52465;51.560;14.368;2023-06-22T06:16:38;100689.00;;;24.85;57.47
65553;BME280;52465;51.560;14.368;2023-06-22T06:19:04;100685.41;;;24.79;57.34
65553;BME280;52465;51.560;14.368;2023-06-22T06:21:31;100683.88;;;24.84;57.28
65553;BME280;52465;51.560;14.368;2023-06-22T06:23:57;100695.25;;;24.91;57.55
65553;BME280;52465;51.560;14.368;2023-06-22T06:26:24;100674.69;;;24.79;57.82
65553;BME280;52465;51.560;14.368;2023-06-22T06:28:56;100690.50;;;24.93;57.21
65553;BME280;52465;51.560;14.368;2023-06-22T06:31:23;100644.41;;;24.62;57.62
65553;BME280;52465;51.560;14.368;2023-06-22T06:33:49;100675.38;;;24.87;57.57
65553;BME280;52465;51.560;14.368;2023-06-22T06:36:15;100673.28;;;24.89;57.44
65553;BME280;52465;51.560;14.368;2023-06-22T06:38:42;100668.00;;;24.94;57.61
65553;BME280;52465;51.560;14.368;2023-06-22T06:41:08;100654.28;;;24.90;57.37
65553;BME280;52465;51.560;14.368;2023-06-22T06:43:34;100641.03;;;24.84;57.41
65553;BME280;52465;51.560;14.368;2023-06-22T06:46:00;100649.72;;;24.91;57.62
65553;BME280;52465;51.560;14.368;2023-06-22T06:48:28;100653.56;;;24.95;57.42
65553;BME280;52465;51.560;14.368;2023-06-22T06:50:57;100646.72;;;24.87;57.36
65553;BME280;52465;51.560;14.368;2023-06-22T06:53:23;100642.03;;;24.94;57.58
65553;BME280;52465;51.560;14.368;2023-06-22T06:55:50;100601.19;;;24.70;57.64
65553;BME280;52465;51.560;14.368;2023-06-22T06:58:17;100619.38;;;24.85;57.59
65553;BME280;52465;51.560;14.368;2023-06-22T07:00:43;100626.50;;;24.96;57.38
65553;BME280;52465;51.560;14.368;2023-06-22T07:03:09;100616.88;;;24.95;57.33
65553;BME280;52465;51.560;14.368;2023-06-22T07:05:35;100614.69;;;24.92;57.40
65553;BME280;52465;51.560;14.368;2023-06-22T07:08:01;100534.31;;;24.42;57.12
65553;BME280;52465;51.560;14.368;2023-06-22T07:10:29;100614.19;;;24.95;57.05
65553;BME280;52465;51.560;14.368;2023-06-22T07:12:55;100571.91;;;24.64;57.18
65553;BME280;52465;51.560;14.368;2023-06-22T07:15:22;100624.66;;;24.97;57.16
65553;BME280;52465;51.560;14.368;2023-06-22T07:17:48;100620.03;;;24.92;57.19
65553;BME280;52465;51.560;14.368;2023-06-22T07:20:14;100618.25;;;24.98;57.11
65553;BME280;52465;51.560;14.368;2023-06-22T07:22:42;100609.72;;;25.01;57.00
65553;BME280;52465;51.560;14.368;2023-06-22T07:25:08;100601.44;;;25.02;56.98
65553;BME280;52465;51.560;14.368;2023-06-22T07:27:39;100605.97;;;25.02;56.96
65553;BME280;52465;51.560;14.368;2023-06-22T07:30:15;100613.53;;;25.05;56.82
65553;BME280;52465;51.560;14.368;2023-06-22T07:32:43;100563.53;;;24.77;57.20
65553;BME280;52465;51.560;14.368;2023-06-22T07:35:09;100590.66;;;24.97;56.59
65553;BME280;52465;51.560;14.368;2023-06-22T07:37:36;100592.50;;;24.97;56.86
65553;BME280;52465;51.560;14.368;2023-06-22T07:40:02;100587.72;;;24.99;56.81
65553;BME280;52465;51.560;14.368;2023-06-22T07:42:32;100580.75;;;24.98;56.69
65553;BME280;52465;51.560;14.368;2023-06-22T07:45:10;100589.00;;;24.96;56.67
65553;BME280;52465;51.560;14.368;2023-06-22T07:47:37;100599.59;;;25.03;56.64
65553;BME280;52465;51.560;14.368;2023-06-22T07:50:03;100614.94;;;25.08;56.53
65553;BME280;52465;51.560;14.368;2023-06-22T07:52:31;100627.06;;;25.10;56.60
65553;BME280;52465;51.560;14.368;2023-06-22T07:55:52;100604.47;;;25.06;56.26
65553;BME280;52465;51.560;14.368;2023-06-22T07:58:18;100589.34;;;25.00;56.17
65553;BME280;52465;51.560;14.368;2023-06-22T08:00:46;100610.47;;;25.13;56.33
65553;BME280;52465;51.560;14.368;2023-06-22T08:03:12;100584.72;;;24.95;56.65
65553;BME280;52465;51.560;14.368;2023-06-22T08:05:39;100612.13;;;25.14;56.59
65553;BME280;52465;51.560;14.368;2023-06-22T08:08:05;100608.06;;;25.12;56.28
65553;BME280;52465;51.560;14.368;2023-06-22T08:10:31;100590.84;;;25.08;56.45
65553;BME280;52465;51.560;14.368;2023-06-22T08:12:57;100587.59;;;25.05;56.33
65553;BME280;52465;51.560;14.368;2023-06-22T08:15:23;100615.69;;;25.20;56.33
65553;BME280;52465;51.560;14.368;2023-06-22T08:17:49;100571.84;;;24.92;55.80
65553;BME280;52465;51.560;14.368;2023-06-22T08:20:16;100613.56;;;25.22;56.46
65553;BME280;52465;51.560;14.368;2023-06-22T08:22:43;100608.78;;;25.24;56.39
65553;BME280;52465;51.560;14.368;2023-06-22T08:25:10;100617.63;;;25.24;56.19
65553;BME280;52465;51.560;14.368;2023-06-22T08:27:36;100580.69;;;25.10;56.23
65553;BME280;52465;51.560;14.368;2023-06-22T08:30:04;100599.44;;;25.26;55.97
65553;BME280;52465;51.560;14.368;2023-06-22T08:32:31;100587.59;;;25.22;56.03
65553;BME280;52465;51.560;14.368;2023-06-22T08:34:58;100581.50;;;25.27;55.41
65553;BME280;52465;51.560;14.368;2023-06-22T08:37:25;100585.78;;;25.28;55.77
65553;BME280;52465;51.560;14.368;2023-06-22T08:39:58;100579.13;;;25.30;55.73
65553;BME280;52465;51.560;14.368;2023-06-22T08:42:24;100593.09;;;25.32;55.67
65553;BME280;52465;51.560;14.368;2023-06-22T08:44:51;100551.53;;;25.13;55.54
65553;BME280;52465;51.560;14.368;2023-06-22T08:47:17;100579.97;;;25.31;55.80
65553;BME280;52465;51.560;14.368;2023-06-22T08:49:43;100584.47;;;25.30;55.66
65553;BME280;52465;51.560;14.368;2023-06-22T08:52:10;100576.13;;;25.27;55.57
65553;BME280;52465;51.560;14.368;2023-06-22T08:54:37;100570.38;;;25.18;55.80
65553;BME280;52465;51.560;14.368;2023-06-22T08:57:03;100563.13;;;25.19;55.79
65553;BME280;52465;51.560;14.368;2023-06-22T08:59:29;100526.78;;;24.89;56.01
65553;BME280;52465;51.560;14.368;2023-06-22T09:01:55;100581.56;;;25.32;55.77
65553;BME280;52465;51.560;14.368;2023-06-22T09:04:24;100578.91;;;25.32;55.77
65553;BME280;52465;51.560;14.368;2023-06-22T09:06:50;100579.44;;;25.34;55.71
65553;BME280;52465;51.560;14.368;2023-06-22T09:09:18;100558.66;;;25.24;55.70
65553;BME280;52465;51.560;14.368;2023-06-22T09:11:44;100570.03;;;25.31;55.39
65553;BME280;52465;51.560;14.368;2023-06-22T09:14:11;100540.59;;;25.15;55.67
65553;BME280;52465;51.560;14.368;2023-06-22T09:16:37;100540.50;;;25.26;55.41
65553;BME280;52465;51.560;14.368;2023-06-22T09:19:03;100561.84;;;25.60;55.07
65553;BME280;52465;51.560;14.368;2023-06-22T09:21:28;100563.94;;;25.75;54.87
65553;BME280;52465;51.560;14.368;2023-06-22T09:23:54;100552.59;;;25.90;54.54
65553;BME280;52465;51.560;14.368;2023-06-22T09:26:27;100513.72;;;25.70;54.84
65553;BME280;52465;51.560;14.368;2023-06-22T09:28:53;100535.53;;;26.01;54.48
65553;BME280;52465;51.560;14.368;2023-06-22T09:31:19;100555.41;;;26.27;54.07
65553;BME280;52465;51.560;14.368;2023-06-22T09:33:53;100550.94;;;26.37;53.83
65553;BME280;52465;51.560;14.368;2023-06-22T09:36:22;100541.66;;;26.45;54.09
65553;BME280;52465;51.560;14.368;2023-06-22T09:39:30;100557.06;;;26.55;53.59
65553;BME280;52465;51.560;14.368;2023-06-22T09:41:58;100552.53;;;26.60;53.58
65553;BME280;52465;51.560;14.368;2023-06-22T09:44:25;100526.13;;;26.52;53.45
65553;BME280;52465;51.560;14.368;2023-06-22T09:46:51;100476.72;;;26.26;53.55
65553;BME280;52465;51.560;14.368;2023-06-22T09:49:17;100543.22;;;26.73;53.44
65553;BME280;52465;51.560;14.368;2023-06-22T09:51:43;100518.97;;;26.63;53.92
65553;BME280;52465;51.560;14.368;2023-06-22T09:54:09;100551.66;;;26.87;53.44
65553;BME280;52465;51.560;14.368;2023-06-22T09:56:35;100536.56;;;26.81;53.54
65553;BME280;52465;51.560;14.368;2023-06-22T09:59:01;100545.78;;;26.90;53.76
65553;BME280;52465;51.560;14.368;2023-06-22T10:01:45;100547.94;;;26.93;53.63
65553;BME280;52465;51.560;14.368;2023-06-22T10:04:11;100545.00;;;26.95;53.58
65553;BME280;52465;51.560;14.368;2023-06-22T10:06:41;100462.41;;;26.43;53.63
65553;BME280;52465;51.560;14.368;2023-06-22T10:09:07;100523.97;;;26.86;53.90
65553;BME280;52465;51.560;14.368;2023-06-22T10:11:34;100519.72;;;26.90;53.33
65553;BME280;52465;51.560;14.368;2023-06-22T10:14:01;100521.06;;;26.93;53.59
65553;BME280;52465;51.560;14.368;2023-06-22T10:16:31;100527.84;;;27.01;53.78
65553;BME280;52465;51.560;14.368;2023-06-22T10:19:39;100536.78;;;27.06;53.55
65553;BME280;52465;51.560;14.368;2023-06-22T10:22:07;100533.50;;;27.04;53.43
65553;BME280;52465;51.560;14.368;2023-06-22T10:24:33;100532.63;;;26.94;53.53
65553;BME280;52465;51.560;14.368;2023-06-22T10:26:59;100544.59;;;27.08;53.98
65553;BME280;52465;51.560;14.368;2023-06-22T10:29:25;100540.00;;;27.08;53.43
65553;BME280;52465;51.560;14.368;2023-06-22T10:31:51;100538.41;;;27.07;53.82
65553;BME280;52465;51.560;14.368;2023-06-22T10:34:16;100511.94;;;26.89;53.89
65553;BME280;52465;51.560;14.368;2023-06-22T10:36:42;100534.13;;;27.11;53.61
65553;BME280;52465;51.560;14.368;2023-06-22T10:39:10;100510.88;;;26.95;54.03
65553;BME280;52465;51.560;14.368;2023-06-22T10:41:36;100500.63;;;26.92;53.77
65553;BME280;52465;51.560;14.368;2023-06-22T10:44:02;100518.44;;;27.03;53.63
65553;BME280;52465;51.560;14.368;2023-06-22T10:46:28;100530.38;;;27.12;53.90
65553;BME280;52465;51.560;14.368;2023-06-22T10:48:54;100508.03;;;27.07;53.97
65553;BME280;52465;51.560;14.368;2023-06-22T10:51:22;100493.16;;;26.94;53.42
65553;BME280;52465;51.560;14.368;2023-06-22T10:53:48;100514.75;;;27.09;54.07
65553;BME280;52465;51.560;14.368;2023-06-22T10:56:14;100515.84;;;27.13;53.98
65553;BME280;52465;51.560;14.368;2023-06-22T10:58:40;100513.41;;;27.07;53.97
65553;BME280;52465;51.560;14.368;2023-06-22T11:01:06;100515.59;;;27.15;53.63
65553;BME280;52465;51.560;14.368;2023-06-22T11:03:32;100489.75;;;27.09;53.54
65553;BME280;52465;51.560;14.368;2023-06-22T11:06:01;100477.56;;;26.96;53.50
65553;BME280;52465;51.560;14.368;2023-06-22T11:08:44;100488.69;;;27.10;53.66
65553;BME280;52465;51.560;14.368;2023-06-22T11:11:29;100503.75;;;27.16;53.99
65553;BME280;52465;51.560;14.368;2023-06-22T11:13:55;100487.63;;;27.16;53.82
65553;BME280;52465;51.560;14.368;2023-06-22T11:16:22;100479.81;;;27.09;53.95
65553;BME280;52465;51.560;14.368;2023-06-22T11:18:50;100473.31;;;27.00;54.06
65553;BME280;52465;51.560;14.368;2023-06-22T11:21:16;100480.66;;;27.15;54.10
65553;BME280;52465;51.560;14.368;2023-06-22T11:23:45;100469.63;;;27.11;53.74
65553;BME280;52465;51.560;14.368;2023-06-22T11:26:11;100475.53;;;27.13;54.02
65553;BME280;52465;51.560;14.368;2023-06-22T11:28:36;100399.22;;;26.67;53.80
65553;BME280;52465;51.560;14.368;2023-06-22T11:31:03;100469.88;;;27.10;53.79
65553;BME280;52465;51.560;14.368;2023-06-22T11:33:49;100448.59;;;27.03;54.21
65553;BME280;52465;51.560;14.368;2023-06-22T11:36:15;100480.94;;;27.19;53.74
65553;BME280;52465;51.560;14.368;2023-06-22T11:41:30;100445.44;;;27.11;53.94
65553;BME280;52465;51.560;14.368;2023-06-22T11:43:56;100463.50;;;27.26;53.12
65553;BME280;52465;51.560;14.368;2023-06-22T11:46:22;100458.69;;;27.28;52.65
65553;BME280;52465;51.560;14.368;2023-06-22T11:48:49;100447.41;;;27.31;53.03
65553;BME280;52465;51.560;14.368;2023-06-22T11:51:15;100432.59;;;27.24;52.31
65553;BME280;52465;51.560;14.368;2023-06-22T11:53:41;100450.06;;;27.26;52.59
65553;BME280;52465;51.560;14.368;2023-06-22T11:56:07;100428.25;;;27.18;52.24
65553;BME280;52465;51.560;14.368;2023-06-22T11:58:36;100442.28;;;27.25;52.66
65553;BME280;52465;51.560;14.368;2023-06-22T12:01:01;100441.78;;;27.43;51.78
65553;BME280;52465;51.560;14.368;2023-06-22T12:03:27;100413.78;;;27.24;51.91
65553;BME280;52465;51.560;14.368;2023-06-22T12:05:54;100422.16;;;27.42;51.58
65553;BME280;52465;51.560;14.368;2023-06-22T12:08:21;100438.38;;;27.63;51.89
65553;BME280;52465;51.560;14.368;2023-06-22T12:10:49;100385.59;;;27.36;51.59
65553;BME280;52465;51.560;14.368;2023-06-22T12:13:17;100440.03;;;27.74;51.46
65553;BME280;52465;51.560;14.368;2023-06-22T12:15:43;100429.53;;;27.78;51.56
65553;BME280;52465;51.560;14.368;2023-06-22T12:18:10;100437.91;;;27.86;51.70
65553;BME280;52465;51.560;14.368;2023-06-22T12:20:36;100390.22;;;27.61;51.35
65553;BME280;52465;51.560;14.368;2023-06-22T12:23:03;100427.94;;;27.87;51.85
65553;BME280;52465;51.560;14.368;2023-06-22T12:25:29;100411.53;;;27.78;51.51
65553;BME280;52465;51.560;14.368;2023-06-22T12:27:56;100411.00;;;27.86;51.59
65553;BME280;52465;51.560;14.368;2023-06-22T12:30:22;100402.13;;;27.86;51.39
65553;BME280;52465;51.560;14.368;2023-06-22T12:32:48;100408.59;;;27.95;51.72
65553;BME280;52465;51.560;14.368;2023-06-22T12:35:16;100414.22;;;27.99;51.61
65553;BME280;52465;51.560;14.368;2023-06-22T12:37:42;100386.78;;;27.86;51.66
65553;BME280;52465;51.560;14.368;2023-06-22T12:40:09;100409.66;;;28.09;51.76
65553;BME280;52465;51.560;14.368;2023-06-22T12:42:35;100375.22;;;27.91;51.56
65553;BME280;52465;51.560;14.368;2023-06-22T12:45:01;100395.69;;;28.02;51.97
65553;BME280;52465;51.560;14.368;2023-06-22T12:47:28;100394.88;;;28.07;51.50
65553;BME280;52465;51.560;14.368;2023-06-22T12:49:54;100397.56;;;28.12;51.74
65553;BME280;52465;51.560;14.368;2023-06-22T12:52:20;100315.97;;;27.60;52.05
65553;BME280;52465;51.560;14.368;2023-06-22T12:54:46;100375.22;;;27.96;51.90
65553;BME280;52465;51.560;14.368;2023-06-22T12:57:21;100398.63;;;28.16;52.15
65553;BME280;52465;51.560;14.368;2023-06-22T12:59:48;100360.41;;;27.93;52.16
65553;BME280;52465;51.560;14.368;2023-06-22T13:02:14;100383.28;;;28.16;51.65
65553;BME280;52465;51.560;14.368;2023-06-22T13:04:40;100378.44;;;28.13;51.92